MST,Max TemperatureF,Mean TemperatureF,Min TemperatureF,Max Dew PointF,MeanDew PointF,Min DewpointF,Max Humidity, Mean Humidity, Min Humidity, Max Sea Level PressureIn, Mean Sea Level PressureIn, Min Sea Level PressureIn, Max VisibilityMiles, Mean VisibilityMiles, Min VisibilityMiles, Max Wind SpeedMPH, Mean Wind SpeedMPH, Max Gust SpeedMPH,PrecipitationIn, CloudCover, Events, WindDirDegrees
2013-11-1,55,43,30,29,27,25,75,54,32,30.27,30.20,30.12,10,10,10,22,8,29,0.00,4,,256
2013-11-2,60,45,30,36,30,25,85,57,29,30.16,29.83,29.62,10,10,9,25,4,33,0.01,4,Rain,272
2013-11-3,42,35,28,30,21,16,76,58,40,30.04,29.88,29.74,10,10,4,21,9,26,T,6,Snow,283
2013-11-4,37,29,20,25,22,16,92,72,52,30.23,30.07,29.93,10,8,1,13,2,17,0.02,5,Snow,286
2013-11-5,42,33,23,24,14,8,74,51,27,30.26,30.20,30.16,10,10,10,16,4,22,0.00,6,,252
2013-11-6,47,39,31,30,23,18,78,55,31,30.40,30.30,30.17,10,10,10,21,7,30,T,6,,262
2013-11-7,53,44,34,35,28,23,69,58,46,30.37,30.05,29.72,10,10,4,39,6,54,0.04,7,Rain,267
2013-11-8,46,41,36,29,25,20,59,51,42,30.18,29.99,29.83,10,10,10,23,9,31,0.00,7,,268
2013-11-9,46,39,31,25,22,21,69,55,40,30.30,30.25,30.19,10,10,10,12,4,14,0.00,3,,201
2013-11-10,50,41,31,30,27,25,78,60,42,30.31,30.23,30.15,10,10,9,13,3,15,0.00,6,,335
2013-11-11,42,36,29,31,27,25,85,74,62,30.56,30.47,30.24,10,9,7,8,2,9,T,5,,354
2013-11-12,51,36,21,33,25,18,92,71,50,30.56,30.43,30.35,10,5,0,8,1,9,0.00,3,Fog,284
2013-11-13,56,45,34,34,28,23,82,57,32,30.34,30.25,30.18,10,10,10,25,9,32,0.00,4,,271
2013-11-14,50,43,36,24,21,17,52,41,29,30.20,30.00,29.80,10,10,10,22,8,31,0.00,0,,250
2013-11-15,45,41,37,21,18,16,48,41,33,29.77,29.60,29.42,10,10,10,26,13,37,0.00,6,,265
2013-11-16,44,38,32,30,22,15,75,58,40,29.64,29.39,29.24,10,9,2,26,8,48,T,5,Snow,266
2013-11-17,41,34,26,21,16,12,61,48,34,30.02,29.89,29.67,10,10,10,28,6,41,0.00,4,,257
2013-11-18,51,38,25,20,17,16,69,48,26,30.07,29.95,29.81,10,10,10,10,3,13,0.00,0,,279
2013-11-19,58,42,25,31,24,17,63,46,28,29.78,29.67,29.61,10,10,10,22,8,33,T,5,,238
2013-11-20,25,13,1,16,4,-4,87,73,58,30.61,30.13,29.76,10,8,1,21,8,25,0.08,5,Snow,331
2013-11-21,22,9,-4,7,0,-8,88,70,52,30.82,30.74,30.45,10,10,5,6,1,7,0.00,1,,279
2013-11-22,29,15,1,12,6,-2,87,67,46,30.90,30.84,30.79,10,9,7,6,1,6,0.00,0,,274
2013-11-23,31,18,4,13,9,2,88,68,47,30.82,30.67,30.46,10,10,8,6,1,6,0.00,0,,288
2013-11-24,33,21,9,22,15,5,84,69,54,30.44,30.39,30.32,10,10,7,6,1,8,0.00,4,,347
2013-11-25,41,28,15,23,19,12,81,65,48,30.54,30.49,30.41,10,10,8,6,1,6,0.00,0,,327
2013-11-26,41,30,18,26,22,14,85,68,51,30.53,30.41,30.25,10,10,7,5,1,6,0.00,0,,292
2013-11-27,44,34,24,28,25,20,92,71,49,30.27,30.23,30.17,10,10,10,9,1,9,0.00,0,,247
2013-11-28,40,29,17,25,21,15,92,73,54,30.30,30.24,30.11,10,9,2,8,1,9,0.00,0,,253
2013-11-29,45,31,17,26,24,18,92,71,49,30.32,30.26,30.19,10,10,10,8,2,10,0.00,2,,249
2013-11-30,47,41,35,31,30,26,70,62,53,30.26,30.21,30.17,10,10,10,18,7,24,0.00,7,,263